KABY/ABY METAR and TAF weather

Enter ICAO airport designator
Station Type Date Time Source
KABY METAR 2020/07/09 06:53 UTC NOAA

KABY 090653Z AUTO 00000KT 10SM CLR 24/24 A2992 RMK AO2 SLP130 T02440239


Station Type Date Time Source
KABY Decoded METAR 2020/07/09 06:53 UTC NOAA

ALBANY SOUTHWEST GEORGIA, GA, United States (KABY) 31-32N 084-12W 58M
Jul 09, 2020 - 02:53 AM EDT / 2020.07.09 0653 UTC
Wind: Calm:0
Visibility: 10 mile(s):0
Sky conditions: clear
Temperature: 75.9 F (24.4 C)
Dew Point: 75.0 F (23.9 C)
Relative Humidity: 97%
Pressure (altimeter): 29.92 in. Hg (1013 hPa)
ob: KABY 090653Z AUTO 00000KT 10SM CLR 24/24 A2992 RMK AO2 SLP130 T02440239
cycle: 7

Station Type Date Time Source
KABY TAF 2020/07/09 06:22 UTC NOAA

TAF KABY 090520Z 0906/1006 29005KT P6SM SCT070
FM091800 29006KT P6SM -SHRA BKN050 PROB30 0918/0922 4SM TSRA BKN040CB

Example: see airport list